createdAt,value
2019-02-15T00:00:49.346Z,15.50
2019-02-15T00:01:54.517Z,15.75
2019-02-15T00:02:59.103Z,15.25
2019-02-15T00:04:03.697Z,14.80
2019-02-15T00:05:08.307Z,15.48
2019-02-15T00:06:12.850Z,15.28
2019-02-15T00:07:17.429Z,14.95
2019-02-15T00:08:21.998Z,14.53
2019-02-15T00:09:26.592Z,14.55
2019-02-15T00:10:31.173Z,15.38
2019-02-15T00:11:35.744Z,14.98
2019-02-15T00:12:40.264Z,15.32
2019-02-15T00:13:44.822Z,15.75
2019-02-15T00:14:50.375Z,14.83
2019-02-15T00:15:54.919Z,15.28
2019-02-15T00:16:59.470Z,15.68
2019-02-15T00:18:19.889Z,15.98
2019-02-15T00:19:30.248Z,15.28
2019-02-15T00:20:37.543Z,16.10
2019-02-15T00:21:44.861Z,16.25
2019-02-15T00:22:49.421Z,14.50
2019-02-15T00:23:54.046Z,15.13
2019-02-15T00:24:58.612Z,15.68
2019-02-15T00:26:03.178Z,15.90
2019-02-15T00:27:07.747Z,16.85
2019-02-15T00:28:12.317Z,15.23
2019-02-15T00:29:16.900Z,15.90
2019-02-15T00:30:21.458Z,16.00
2019-02-15T00:31:26.102Z,15.58
2019-02-15T00:32:30.679Z,15.70
2019-02-15T00:33:35.331Z,16.87
2019-02-15T00:34:39.895Z,15.50
2019-02-15T00:35:44.485Z,16.75
2019-02-15T00:36:49.034Z,16.17
2019-02-15T00:37:53.617Z,17.27
2019-02-15T00:38:58.286Z,14.63
2019-02-15T00:40:02.917Z,15.55
2019-02-15T00:41:07.502Z,15.30
2019-02-15T00:42:12.047Z,16.07
2019-02-15T00:43:22.085Z,15.98
2019-02-15T00:44:22.907Z,15.80
2019-02-15T00:45:29.903Z,15.10
2019-02-15T00:46:51.009Z,15.80
2019-02-15T00:48:00.305Z,14.93
2019-02-15T00:49:06.392Z,14.80
2019-02-15T00:50:23.087Z,15.23
2019-02-15T00:51:51.107Z,15.23
2019-02-15T00:53:20.275Z,14.63
2019-02-15T00:54:59.077Z,15.15
2019-02-15T00:56:14.026Z,14.78
2019-02-15T00:57:37.763Z,14.75
2019-02-15T00:58:51.766Z,15.40
2019-02-15T01:00:18.871Z,14.45
2019-02-15T01:01:42.551Z,14.78
2019-02-15T01:03:04.292Z,15.88
2019-02-15T01:04:33.651Z,16.25
2019-02-15T01:05:46.211Z,14.78
2019-02-15T01:07:00.324Z,14.87
2019-02-15T01:08:30.921Z,14.65
2019-02-15T01:09:57.741Z,14.03
2019-02-15T01:11:13.584Z,15.18
2019-02-15T01:12:21.648Z,16.20
2019-02-15T01:13:31.130Z,16.20
2019-02-15T01:14:32.728Z,14.80
2019-02-15T01:15:37.320Z,16.57
2019-02-15T01:16:42.162Z,15.60
2019-02-15T01:17:46.755Z,16.02
2019-02-15T01:18:51.399Z,15.00
2019-02-15T01:19:55.959Z,15.83
2019-02-15T01:21:00.553Z,15.30
2019-02-15T01:22:05.192Z,15.85
2019-02-15T01:23:09.887Z,15.60
2019-02-15T01:24:14.500Z,15.75
2019-02-15T01:25:19.116Z,16.23
2019-02-15T01:26:51.758Z,16.30
2019-02-15T01:28:07.488Z,15.75
2019-02-15T01:29:36.981Z,14.53
2019-02-15T01:31:08.064Z,15.53
2019-02-15T01:32:24.493Z,16.02
2019-02-15T01:33:51.028Z,16.10
2019-02-15T01:35:06.868Z,15.85
2019-02-15T01:36:21.034Z,16.15
2019-02-15T01:37:34.434Z,15.35
2019-02-15T01:38:56.096Z,15.18
2019-02-15T01:40:15.012Z,16.70
2019-02-15T01:41:31.069Z,14.20
2019-02-15T01:42:43.760Z,15.55
2019-02-15T01:43:53.828Z,15.60
2019-02-15T01:45:07.595Z,13.85
2019-02-15T01:46:16.497Z,15.23
2019-02-15T01:47:30.444Z,15.20
2019-02-15T01:48:35.010Z,14.45
2019-02-15T01:49:39.568Z,14.87
2019-02-15T01:50:44.171Z,15.25
2019-02-15T01:51:48.801Z,15.28
2019-02-15T01:52:53.461Z,14.40
2019-02-15T01:53:58.053Z,14.68
2019-02-15T01:55:02.647Z,15.30
2019-02-15T01:56:07.251Z,15.03
2019-02-15T01:57:11.865Z,14.70
2019-02-15T01:58:16.451Z,14.33
2019-02-15T01:59:21.045Z,13.75
2019-02-15T02:00:27.959Z,14.33
2019-02-15T02:01:32.536Z,14.90
2019-02-15T02:02:37.088Z,14.25
2019-02-15T02:03:41.680Z,14.85
2019-02-15T02:04:46.240Z,14.05
2019-02-15T02:05:50.848Z,14.35
2019-02-15T02:06:55.399Z,14.75
2019-02-15T02:08:00.068Z,14.53
2019-02-15T02:09:05.273Z,14.30
2019-02-15T02:10:10.745Z,14.53
2019-02-15T02:11:15.326Z,14.07
2019-02-15T02:12:19.941Z,14.58
2019-02-15T02:13:24.779Z,14.53
2019-02-15T02:14:29.449Z,14.10
2019-02-15T02:15:34.017Z,15.03
2019-02-15T02:16:38.617Z,14.75
2019-02-15T02:17:43.183Z,14.07
2019-02-15T02:18:47.756Z,14.28
2019-02-15T02:19:52.323Z,13.38
2019-02-15T02:20:56.915Z,14.40
2019-02-15T02:22:01.484Z,15.30
2019-02-15T02:23:06.039Z,14.78
2019-02-15T02:24:10.615Z,13.68
2019-02-15T02:25:16.191Z,14.68
2019-02-15T02:26:20.768Z,14.50
2019-02-15T02:27:25.348Z,13.90
2019-02-15T02:28:29.903Z,14.33
2019-02-15T02:29:34.476Z,12.90
2019-02-15T02:30:39.198Z,14.75
2019-02-15T02:31:43.780Z,13.48
2019-02-15T02:32:48.355Z,13.48
2019-02-15T02:33:52.968Z,13.78
2019-02-15T02:34:57.596Z,13.98
2019-02-15T02:36:02.271Z,13.22
2019-02-15T02:37:06.884Z,13.48
2019-02-15T02:38:11.560Z,12.82
2019-02-15T02:39:16.392Z,13.43
2019-02-15T02:40:20.948Z,14.98
2019-02-15T02:41:25.555Z,13.30
2019-02-15T02:42:30.700Z,13.25
2019-02-15T02:43:35.724Z,13.60
2019-02-15T02:44:40.566Z,14.25
2019-02-15T02:45:45.326Z,13.55
2019-02-15T02:46:51.288Z,14.70
2019-02-15T02:47:55.979Z,13.28
2019-02-15T02:49:00.592Z,13.20
2019-02-15T02:50:05.419Z,14.10
2019-02-15T02:51:13.365Z,12.58
2019-02-15T02:52:18.664Z,12.78
2019-02-15T02:53:23.488Z,13.48
2019-02-15T02:54:28.199Z,13.40
2019-02-15T02:55:32.858Z,13.55
2019-02-15T02:56:37.475Z,14.23
2019-02-15T02:57:42.021Z,14.00
2019-02-15T02:58:46.582Z,13.95
2019-02-15T02:59:51.234Z,12.45
2019-02-15T03:00:55.862Z,13.10
2019-02-15T03:02:00.606Z,13.85
2019-02-15T03:03:05.284Z,12.50
2019-02-15T03:04:09.952Z,12.78
2019-02-15T03:05:14.599Z,12.90
2019-02-15T03:06:19.195Z,13.05
2019-02-15T03:07:24.092Z,13.00
2019-02-15T03:08:28.775Z,13.58
2019-02-15T03:09:33.350Z,13.55
2019-02-15T03:10:37.911Z,13.35
2019-02-15T03:11:42.526Z,13.00
2019-02-15T03:12:47.201Z,12.25
2019-02-15T03:13:51.858Z,11.80
2019-02-15T03:14:56.466Z,12.88
2019-02-15T03:16:01.007Z,12.20
2019-02-15T03:17:05.553Z,14.25
2019-02-15T03:18:10.104Z,12.65
2019-02-15T03:19:14.706Z,12.65
2019-02-15T03:20:30.326Z,13.30
2019-02-15T03:21:25.578Z,13.78
2019-02-15T03:22:30.160Z,13.62
2019-02-15T03:23:34.721Z,13.05
2019-02-15T03:24:39.297Z,12.95
2019-02-15T03:25:43.839Z,12.80
2019-02-15T03:26:48.399Z,12.55
2019-02-15T03:27:52.961Z,13.10
2019-02-15T03:28:58.491Z,12.45
2019-02-15T03:30:03.104Z,12.90
2019-02-15T03:31:08.755Z,12.65
2019-02-15T03:32:13.318Z,13.85
2019-02-15T03:33:17.903Z,11.93
2019-02-15T03:34:22.552Z,13.20
2019-02-15T03:35:27.162Z,13.83
2019-02-15T03:36:56.942Z,12.53
2019-02-15T03:38:20.619Z,13.30
2019-02-15T03:39:44.332Z,12.40
2019-02-15T03:40:52.016Z,13.10
2019-02-15T03:41:56.621Z,12.85
2019-02-15T03:43:01.202Z,12.55
2019-02-15T03:44:05.771Z,13.93
2019-02-15T03:45:10.511Z,13.93
2019-02-15T03:46:15.103Z,13.53
2019-02-15T03:47:25.096Z,14.18
2019-02-15T03:48:29.721Z,13.43
2019-02-15T03:49:34.347Z,13.28
2019-02-15T03:50:42.192Z,13.32
2019-02-15T03:51:46.813Z,13.30
2019-02-15T03:52:51.413Z,13.93
2019-02-15T03:53:55.960Z,13.35
2019-02-15T03:55:00.722Z,14.28
2019-02-15T03:56:05.352Z,13.13
2019-02-15T03:57:09.930Z,13.45
2019-02-15T03:58:14.511Z,13.45
2019-02-15T03:59:19.083Z,13.85
2019-02-15T04:00:23.796Z,13.88
2019-02-15T04:01:28.400Z,14.05
2019-02-15T04:02:33.236Z,14.03
2019-02-15T04:03:37.800Z,13.38
2019-02-15T04:04:42.403Z,14.10
2019-02-15T04:05:47.077Z,14.75
2019-02-15T04:06:55.023Z,13.05
2019-02-15T04:07:59.649Z,12.53
2019-02-15T04:09:05.276Z,13.60
2019-02-15T04:10:10.101Z,12.98
2019-02-15T04:11:14.705Z,12.63
2019-02-15T04:12:19.268Z,13.18
2019-02-15T04:13:23.903Z,13.25
2019-02-15T04:14:32.905Z,13.10
2019-02-15T04:15:36.050Z,12.05
2019-02-15T04:16:40.591Z,13.28
2019-02-15T04:17:45.233Z,13.13
2019-02-15T04:18:52.795Z,12.70
2019-02-15T04:19:57.415Z,13.38
2019-02-15T04:21:02.057Z,13.05
2019-02-15T04:22:06.669Z,12.98
2019-02-15T04:23:11.254Z,13.13
2019-02-15T04:24:15.833Z,13.40
2019-02-15T04:25:20.382Z,13.22
2019-02-15T04:26:24.982Z,13.40
2019-02-15T04:27:29.612Z,13.30
2019-02-15T04:28:34.194Z,12.60
2019-02-15T04:29:38.892Z,12.40
2019-02-15T04:30:43.573Z,12.93
2019-02-15T04:31:48.202Z,12.85
2019-02-15T04:32:52.785Z,13.25
2019-02-15T04:34:00.169Z,13.08
2019-02-15T04:35:04.952Z,12.60
2019-02-15T04:36:09.538Z,13.55
2019-02-15T04:37:14.143Z,13.10
2019-02-15T04:38:18.749Z,13.25
2019-02-15T04:39:23.490Z,13.85
2019-02-15T04:40:28.091Z,12.73
2019-02-15T04:41:33.763Z,12.82
2019-02-15T04:42:38.368Z,13.72
2019-02-15T04:43:42.944Z,13.50
2019-02-15T04:44:47.538Z,12.60
2019-02-15T04:45:52.117Z,13.70
2019-02-15T04:46:57.000Z,13.10
2019-02-15T04:48:02.453Z,12.03
2019-02-15T04:49:07.106Z,12.63
2019-02-15T04:50:11.703Z,12.95
2019-02-15T04:51:16.314Z,13.45
2019-02-15T04:52:20.978Z,13.18
2019-02-15T04:53:26.560Z,13.78
2019-02-15T04:54:31.136Z,12.43
2019-02-15T04:55:35.795Z,13.88
2019-02-15T04:56:40.343Z,12.88
2019-02-15T04:57:44.930Z,12.65
2019-02-15T04:58:49.712Z,12.82
2019-02-15T04:59:54.295Z,13.58
2019-02-15T05:00:58.924Z,12.95
2019-02-15T05:02:04.454Z,12.58
2019-02-15T05:03:09.040Z,13.08
2019-02-15T05:04:13.598Z,13.50
2019-02-15T05:05:18.178Z,13.00
2019-02-15T05:06:22.755Z,13.15
2019-02-15T05:07:28.292Z,12.75
2019-02-15T05:08:32.939Z,13.55
2019-02-15T05:09:37.725Z,12.68
2019-02-15T05:10:42.348Z,13.50
2019-02-15T05:11:47.002Z,13.43
2019-02-15T05:12:51.626Z,14.50
2019-02-15T05:13:57.939Z,13.20
2019-02-15T05:15:02.545Z,12.60
2019-02-15T05:16:07.099Z,12.78
2019-02-15T05:17:11.665Z,13.13
2019-02-15T05:18:16.219Z,13.38
2019-02-15T05:19:20.828Z,13.10
2019-02-15T05:20:25.402Z,12.90
2019-02-15T05:21:29.942Z,13.95
2019-02-15T05:22:34.526Z,13.68
2019-02-15T05:23:39.094Z,14.30
2019-02-15T05:24:44.633Z,14.00
2019-02-15T05:25:49.190Z,13.88
2019-02-15T05:26:53.793Z,13.90
2019-02-15T05:27:59.358Z,13.48
2019-02-15T05:29:04.035Z,13.08
2019-02-15T05:30:08.759Z,13.95
2019-02-15T05:31:13.351Z,14.07
2019-02-15T05:32:17.988Z,13.20
2019-02-15T05:33:22.559Z,14.00
2019-02-15T05:34:27.171Z,13.62
2019-02-15T05:35:31.763Z,13.58
2019-02-15T05:36:36.350Z,14.03
2019-02-15T05:37:41.066Z,12.68
2019-02-15T05:38:45.654Z,13.98
2019-02-15T05:39:50.278Z,13.40
2019-02-15T05:40:54.861Z,13.68
2019-02-15T05:41:59.439Z,13.72
2019-02-15T05:43:04.024Z,13.65
2019-02-15T05:44:08.582Z,14.63
2019-02-15T05:45:13.159Z,14.07
2019-02-15T05:46:17.796Z,13.50
2019-02-15T05:47:22.354Z,13.03
2019-02-15T05:48:26.999Z,13.20
2019-02-15T05:49:31.574Z,13.20
2019-02-15T05:50:36.155Z,13.60
2019-02-15T05:51:40.708Z,13.30
2019-02-15T05:52:45.279Z,13.00
2019-02-15T05:53:49.864Z,13.20
2019-02-15T05:54:54.480Z,13.60
2019-02-15T05:55:59.025Z,13.78
2019-02-15T05:57:03.580Z,13.43
2019-02-15T05:58:09.143Z,13.70
2019-02-15T05:59:13.719Z,13.05
2019-02-15T06:00:18.299Z,12.53
2019-02-15T06:01:24.143Z,13.65
2019-02-15T06:02:28.706Z,13.48
2019-02-15T06:03:33.474Z,12.30
2019-02-15T06:04:38.131Z,12.23
2019-02-15T06:05:42.756Z,13.08
2019-02-15T06:06:47.323Z,12.10
2019-02-15T06:07:51.900Z,13.00
2019-02-15T06:08:56.452Z,12.37
2019-02-15T06:10:01.062Z,13.20
2019-02-15T06:11:07.855Z,12.70
2019-02-15T06:12:12.011Z,14.18
2019-02-15T06:13:17.556Z,13.00
2019-02-15T06:14:22.178Z,12.75
2019-02-15T06:15:26.783Z,12.70
2019-02-15T06:16:31.406Z,12.65
2019-02-15T06:17:35.971Z,13.05
2019-02-15T06:18:40.542Z,12.63
2019-02-15T06:19:45.288Z,13.78
2019-02-15T06:20:49.959Z,12.25
2019-02-15T06:21:54.534Z,12.00
2019-02-15T06:22:59.168Z,12.90
2019-02-15T06:24:03.735Z,12.85
2019-02-15T06:25:08.373Z,14.43
2019-02-15T06:26:13.007Z,12.85
2019-02-15T06:27:17.623Z,13.48
2019-02-15T06:28:22.221Z,12.33
2019-02-15T06:29:27.769Z,13.50
2019-02-15T06:30:32.361Z,13.50
2019-02-15T06:31:36.931Z,13.35
2019-02-15T06:32:41.703Z,13.40
2019-02-15T06:33:46.292Z,13.88
2019-02-15T06:34:50.924Z,12.98
2019-02-15T06:35:55.502Z,13.78
2019-02-15T06:37:00.086Z,14.18
2019-02-15T06:38:04.734Z,14.35
2019-02-15T06:39:09.466Z,13.53
2019-02-15T06:40:14.260Z,13.53
2019-02-15T06:41:18.875Z,13.50
2019-02-15T06:42:23.526Z,15.23
2019-02-15T06:43:28.093Z,14.63
2019-02-15T06:44:32.875Z,13.13
2019-02-15T06:45:37.479Z,15.25
2019-02-15T06:46:42.134Z,14.50
2019-02-15T06:47:46.718Z,14.63
2019-02-15T06:48:51.401Z,14.68
2019-02-15T06:49:56.009Z,15.30
2019-02-15T06:51:00.645Z,15.03
2019-02-15T06:52:06.307Z,14.47
2019-02-15T06:53:10.964Z,15.28
2019-02-15T06:54:15.586Z,13.83
2019-02-15T06:55:20.436Z,13.85
2019-02-15T06:56:25.122Z,15.60
2019-02-15T06:57:29.794Z,14.25
2019-02-15T06:58:36.052Z,14.80
2019-02-15T06:59:48.758Z,14.87
2019-02-15T07:01:00.552Z,15.45
2019-02-15T07:02:21.830Z,14.03
2019-02-15T07:03:43.854Z,13.20
2019-02-15T07:05:03.350Z,13.20
2019-02-15T07:06:07.939Z,13.85
2019-02-15T07:07:12.633Z,13.15
2019-02-15T07:08:17.251Z,13.98
2019-02-15T07:09:21.897Z,13.35
2019-02-15T07:10:26.513Z,14.95
2019-02-15T07:11:31.228Z,14.50
2019-02-15T07:12:35.771Z,13.03
2019-02-15T07:13:40.355Z,14.05
2019-02-15T07:14:44.986Z,14.55
2019-02-15T07:15:49.582Z,17.15
2019-02-15T07:16:54.176Z,16.77
2019-02-15T07:17:58.814Z,13.90
2019-02-15T07:19:03.400Z,14.70
2019-02-15T07:20:09.034Z,15.20
2019-02-15T07:21:13.659Z,14.90
2019-02-15T07:22:18.286Z,15.00
2019-02-15T07:23:22.941Z,14.50
2019-02-15T07:24:27.593Z,14.80
2019-02-15T07:25:32.209Z,14.20
2019-02-15T07:26:36.941Z,15.23
2019-02-15T07:27:41.520Z,16.23
2019-02-15T07:28:46.092Z,14.23
2019-02-15T07:29:50.711Z,14.65
2019-02-15T07:30:55.420Z,14.23
2019-02-15T07:32:00.080Z,15.08
2019-02-15T07:33:04.652Z,14.95
2019-02-15T07:34:09.331Z,14.33
2019-02-15T07:35:13.952Z,14.50
2019-02-15T07:36:18.550Z,13.68
2019-02-15T07:37:23.223Z,15.23
2019-02-15T07:38:27.789Z,14.73
2019-02-15T07:39:32.327Z,15.35
2019-02-15T07:40:36.901Z,15.85
2019-02-15T07:41:41.608Z,14.65
2019-02-15T07:42:46.251Z,15.90
2019-02-15T07:43:50.810Z,14.00
2019-02-15T07:44:55.377Z,15.00
2019-02-15T07:46:00.017Z,15.38
2019-02-15T07:47:04.629Z,14.53
2019-02-15T07:48:09.305Z,14.18
2019-02-15T07:49:13.868Z,14.83
2019-02-15T07:50:18.483Z,15.15
2019-02-15T07:51:23.140Z,14.78
2019-02-15T07:52:27.716Z,15.18
2019-02-15T07:53:32.322Z,15.35
2019-02-15T07:54:36.966Z,14.80
2019-02-15T07:55:41.567Z,13.88
2019-02-15T07:56:46.215Z,15.45
2019-02-15T07:57:50.755Z,15.60
2019-02-15T07:58:55.312Z,14.75
2019-02-15T08:00:00.643Z,14.45
2019-02-15T08:01:05.531Z,15.70
2019-02-15T08:02:10.203Z,15.18
2019-02-15T08:03:14.787Z,14.50
2019-02-15T08:04:19.384Z,14.70
2019-02-15T08:05:24.947Z,14.90
2019-02-15T08:06:29.539Z,14.50
2019-02-15T08:07:34.124Z,14.15
2019-02-15T08:08:38.695Z,14.68
2019-02-15T08:09:43.239Z,15.03
2019-02-15T08:10:48.134Z,14.38
2019-02-15T08:11:52.795Z,16.35
2019-02-15T08:12:57.408Z,15.03
2019-02-15T08:14:02.000Z,20.55
2019-02-15T08:15:07.223Z,17.55
2019-02-15T08:16:11.836Z,17.27
2019-02-15T08:17:16.407Z,14.93
2019-02-15T08:18:21.134Z,17.15
2019-02-15T08:19:25.913Z,15.10
2019-02-15T08:20:30.582Z,17.10
2019-02-15T08:21:35.260Z,14.43
2019-02-15T08:22:39.826Z,16.45
2019-02-15T08:23:44.585Z,15.50
2019-02-15T08:24:49.199Z,14.58
2019-02-15T08:25:53.813Z,13.72
2019-02-15T08:26:58.586Z,17.50
2019-02-15T08:28:03.351Z,16.42
2019-02-15T08:29:08.124Z,15.35
2019-02-15T08:30:12.855Z,15.50
2019-02-15T08:31:17.501Z,14.30
2019-02-15T08:32:22.123Z,16.17
2019-02-15T08:33:26.726Z,14.83
2019-02-15T08:34:31.319Z,17.77
2019-02-15T08:35:35.902Z,16.00
2019-02-15T08:36:40.545Z,15.10
2019-02-15T08:37:45.272Z,12.40
2019-02-15T08:38:49.931Z,14.87
2019-02-15T08:39:54.525Z,15.50
2019-02-15T08:40:59.191Z,13.72
2019-02-15T08:42:04.602Z,12.60
2019-02-15T08:43:09.336Z,16.10
2019-02-15T08:44:13.925Z,15.38
2019-02-15T08:45:18.711Z,13.45
2019-02-15T08:46:23.286Z,14.43
2019-02-15T08:47:27.942Z,12.23
2019-02-15T08:48:32.516Z,12.13
2019-02-15T08:49:37.091Z,13.68
2019-02-15T08:50:42.053Z,12.28
2019-02-15T08:51:46.809Z,12.58
2019-02-15T08:52:51.369Z,13.00
2019-02-15T08:53:55.979Z,10.50
2019-02-15T08:55:00.552Z,13.93
2019-02-15T08:56:05.261Z,10.90
2019-02-15T08:57:09.839Z,11.85
2019-02-15T08:58:14.411Z,10.93
2019-02-15T08:59:19.041Z,12.30
2019-02-15T09:00:23.607Z,12.60
2019-02-15T09:01:28.149Z,11.40
2019-02-15T09:02:32.739Z,11.63
2019-02-15T09:03:37.294Z,11.18
2019-02-15T09:04:41.863Z,11.45
2019-02-15T09:05:46.642Z,13.05
2019-02-15T09:06:51.326Z,11.83
2019-02-15T09:07:55.890Z,12.13
2019-02-15T09:09:01.209Z,11.57
2019-02-15T09:10:09.320Z,11.95
2019-02-15T09:11:13.933Z,11.38
2019-02-15T09:12:18.684Z,11.85
2019-02-15T09:13:23.855Z,12.13
2019-02-15T09:14:28.450Z,12.93
2019-02-15T09:15:33.004Z,12.25
2019-02-15T09:16:37.593Z,12.58
2019-02-15T09:17:42.137Z,11.40
2019-02-15T09:18:50.057Z,11.73
2019-02-15T09:19:56.576Z,11.55
2019-02-15T09:21:01.148Z,11.33
2019-02-15T09:22:05.680Z,12.58
2019-02-15T09:23:12.198Z,11.40
2019-02-15T09:24:16.518Z,11.55
2019-02-15T09:25:21.067Z,11.90
2019-02-15T09:26:25.639Z,12.82
2019-02-15T09:27:55.354Z,11.75
2019-02-15T09:29:02.688Z,11.90
2019-02-15T09:30:08.976Z,12.10
2019-02-15T09:31:13.519Z,13.00
2019-02-15T09:32:18.123Z,12.80
2019-02-15T09:33:22.675Z,12.55
2019-02-15T09:34:28.195Z,13.22
2019-02-15T09:35:32.807Z,13.40
2019-02-15T09:36:37.441Z,12.53
2019-02-15T09:37:42.038Z,12.90
2019-02-15T09:38:46.612Z,13.53
2019-02-15T09:39:51.235Z,12.63
2019-02-15T09:40:55.804Z,15.88
2019-02-15T09:42:00.415Z,13.00
2019-02-15T09:43:05.085Z,13.10
2019-02-15T09:44:09.643Z,14.35
2019-02-15T09:45:15.181Z,14.53
2019-02-15T09:46:20.371Z,14.68
2019-02-15T09:47:26.112Z,14.78
2019-02-15T09:48:31.040Z,13.40
2019-02-15T09:49:35.899Z,14.03
2019-02-15T09:50:40.548Z,13.93
2019-02-15T09:51:45.297Z,13.65
2019-02-15T09:52:49.890Z,12.73
2019-02-15T09:53:54.456Z,13.45
2019-02-15T09:54:59.055Z,13.58
2019-02-15T09:56:03.654Z,13.10
2019-02-15T09:57:08.234Z,12.90
2019-02-15T09:58:12.914Z,13.35
2019-02-15T09:59:17.604Z,13.70
2019-02-15T10:00:22.255Z,14.35
2019-02-15T10:01:26.824Z,12.95
2019-02-15T10:02:31.412Z,15.80
2019-02-15T10:03:35.969Z,14.50
2019-02-15T10:04:40.515Z,13.93
2019-02-15T10:05:45.079Z,14.05
2019-02-15T10:06:49.665Z,14.20
2019-02-15T10:07:54.408Z,13.62
2019-02-15T10:08:59.101Z,14.45
2019-02-15T10:10:03.886Z,15.18
2019-02-15T10:11:08.564Z,15.13
2019-02-15T10:12:13.154Z,14.55
2019-02-15T10:13:17.738Z,15.10
2019-02-15T10:14:22.335Z,15.05
2019-02-15T10:15:27.871Z,15.60
2019-02-15T10:16:32.409Z,13.80
2019-02-15T10:17:36.997Z,14.40
2019-02-15T10:18:41.613Z,13.98
2019-02-15T10:19:46.163Z,13.93
2019-02-15T10:20:50.718Z,16.00
2019-02-15T10:21:55.299Z,13.80
2019-02-15T10:22:59.873Z,14.83
2019-02-15T10:24:04.475Z,15.60
2019-02-15T10:25:09.132Z,14.35
2019-02-15T10:26:13.718Z,15.18
2019-02-15T10:27:18.319Z,14.90
2019-02-15T10:28:22.875Z,14.05
2019-02-15T10:29:27.455Z,14.30
2019-02-15T10:30:32.033Z,14.70
2019-02-15T10:31:36.588Z,13.85
2019-02-15T10:32:41.159Z,14.13
2019-02-15T10:33:45.719Z,15.08
2019-02-15T10:34:50.361Z,13.83
2019-02-15T10:35:54.960Z,14.23
2019-02-15T10:36:59.570Z,14.60
2019-02-15T10:38:04.201Z,15.35
2019-02-15T10:39:09.056Z,14.90
2019-02-15T10:40:13.641Z,14.70
2019-02-15T10:41:18.214Z,14.50
2019-02-15T10:42:22.864Z,14.60
2019-02-15T10:43:27.408Z,15.03
2019-02-15T10:44:31.998Z,14.93
2019-02-15T10:45:36.565Z,15.18
2019-02-15T10:46:41.098Z,16.00
2019-02-15T10:47:45.674Z,14.30
2019-02-15T10:48:51.213Z,14.53
2019-02-15T10:49:55.805Z,13.25
2019-02-15T10:51:00.370Z,14.85
2019-02-15T10:52:04.973Z,14.53
2019-02-15T10:53:11.003Z,13.85
2019-02-15T10:54:15.804Z,13.32
2019-02-15T10:55:20.441Z,13.38
2019-02-15T10:56:25.122Z,13.83
2019-02-15T10:57:29.686Z,15.15
2019-02-15T10:58:34.301Z,14.28
2019-02-15T10:59:38.914Z,15.63
2019-02-15T11:00:43.531Z,13.60
2019-02-15T11:01:48.229Z,14.60
2019-02-15T11:02:52.829Z,14.80
2019-02-15T11:03:57.430Z,13.35
2019-02-15T11:05:01.987Z,14.15
2019-02-15T11:06:06.620Z,14.13
2019-02-15T11:07:11.276Z,13.88
2019-02-15T11:08:15.904Z,14.30
2019-02-15T11:09:20.605Z,14.30
2019-02-15T11:10:25.170Z,13.25
2019-02-15T11:11:29.798Z,13.22
2019-02-15T11:12:34.414Z,13.83
2019-02-15T11:13:38.980Z,13.35
2019-02-15T11:14:43.594Z,13.45
2019-02-15T11:15:48.191Z,13.15
2019-02-15T11:16:52.798Z,12.95
2019-02-15T11:17:57.392Z,13.20
2019-02-15T11:19:01.981Z,13.32
2019-02-15T11:20:07.591Z,13.25
2019-02-15T11:21:12.203Z,14.70
2019-02-15T11:22:16.904Z,13.40
2019-02-15T11:23:21.600Z,12.43
2019-02-15T11:24:26.216Z,12.55
2019-02-15T11:25:30.903Z,12.90
2019-02-15T11:26:35.534Z,13.20
2019-02-15T11:27:40.242Z,12.93
2019-02-15T11:28:44.891Z,13.32
2019-02-15T11:29:49.464Z,13.03
2019-02-15T11:30:54.078Z,12.58
2019-02-15T11:31:58.670Z,12.78
2019-02-15T11:33:03.373Z,12.28
2019-02-15T11:34:08.924Z,13.20
2019-02-15T11:35:13.595Z,13.08
2019-02-15T11:36:18.315Z,13.50
2019-02-15T11:37:22.856Z,13.55
2019-02-15T11:38:27.439Z,13.28
2019-02-15T11:39:32.034Z,12.50
2019-02-15T11:40:36.611Z,12.45
2019-02-15T11:41:41.183Z,12.58
2019-02-15T11:42:45.767Z,12.58
2019-02-15T11:43:50.466Z,13.62
2019-02-15T11:44:55.083Z,12.82
2019-02-15T11:45:59.844Z,12.47
2019-02-15T11:47:04.478Z,12.30
2019-02-15T11:48:09.397Z,11.50
2019-02-15T11:49:14.404Z,12.65
2019-02-15T11:50:20.649Z,12.53
2019-02-15T11:51:25.373Z,12.35
2019-02-15T11:52:29.921Z,13.15
2019-02-15T11:53:35.149Z,12.23
2019-02-15T11:54:43.126Z,12.35
2019-02-15T11:55:48.051Z,11.78
2019-02-15T11:56:52.862Z,12.15
2019-02-15T11:57:57.706Z,11.68
2019-02-15T11:59:02.282Z,11.50
2019-02-15T12:00:14.265Z,11.75
2019-02-15T12:01:15.285Z,11.28
2019-02-15T12:02:22.043Z,13.45
2019-02-15T12:03:26.740Z,13.05
2019-02-15T12:04:31.390Z,12.63
2019-02-15T12:05:36.559Z,11.75
2019-02-15T12:06:41.302Z,11.28
2019-02-15T12:07:45.858Z,11.28
2019-02-15T12:08:50.452Z,11.95
2019-02-15T12:10:00.893Z,13.10
2019-02-15T12:11:05.471Z,11.03
2019-02-15T12:12:11.146Z,11.43
2019-02-15T12:13:16.100Z,11.57
2019-02-15T12:14:20.677Z,12.03
2019-02-15T12:15:25.253Z,10.78
2019-02-15T12:16:30.356Z,11.97
2019-02-15T12:17:35.095Z,11.45
2019-02-15T12:18:40.174Z,11.03
2019-02-15T12:19:44.894Z,11.18
2019-02-15T12:20:49.629Z,11.75
2019-02-15T12:21:54.392Z,11.43
2019-02-15T12:22:59.791Z,11.73
2019-02-15T12:24:04.767Z,11.38
2019-02-15T12:25:09.856Z,11.65
2019-02-15T12:26:24.074Z,11.30
2019-02-15T12:27:29.183Z,11.22
2019-02-15T12:28:34.065Z,11.68
2019-02-15T12:29:40.288Z,10.68
2019-02-15T12:30:45.572Z,11.78
2019-02-15T12:31:50.239Z,12.63
2019-02-15T12:32:54.959Z,11.10
2019-02-15T12:33:59.545Z,11.20
2019-02-15T12:35:06.283Z,10.72
2019-02-15T12:36:11.037Z,11.22
2019-02-15T12:37:15.827Z,11.60
2019-02-15T12:38:22.536Z,10.30
2019-02-15T12:39:27.196Z,11.00
2019-02-15T12:40:32.075Z,11.78
2019-02-15T12:41:37.900Z,11.00
2019-02-15T12:42:42.511Z,10.50
2019-02-15T12:43:47.713Z,10.30
2019-02-15T12:44:52.387Z,10.63
2019-02-15T12:45:56.971Z,10.80
2019-02-15T12:47:01.636Z,11.12
2019-02-15T12:48:06.224Z,10.53
2019-02-15T12:49:10.875Z,10.70
2019-02-15T12:50:15.687Z,10.75
2019-02-15T12:51:20.256Z,9.95
2019-02-15T12:52:24.854Z,10.13
2019-02-15T12:53:29.511Z,9.35
2019-02-15T12:54:34.199Z,10.40
2019-02-15T12:55:38.904Z,10.30
2019-02-15T12:56:43.871Z,10.45
2019-02-15T12:57:48.582Z,10.30
2019-02-15T12:58:53.343Z,10.00
2019-02-15T12:59:57.907Z,10.78
2019-02-15T13:01:02.508Z,10.15
2019-02-15T13:02:07.219Z,10.00
2019-02-15T13:03:11.821Z,10.35
2019-02-15T13:04:16.509Z,10.32
2019-02-15T13:05:21.383Z,10.05
2019-02-15T13:06:28.655Z,10.90
2019-02-15T13:07:32.914Z,10.15
2019-02-15T13:08:37.672Z,9.70
2019-02-15T13:09:42.328Z,9.98
2019-02-15T13:10:46.959Z,10.60
2019-02-15T13:11:51.540Z,10.28
2019-02-15T13:12:56.268Z,10.23
2019-02-15T13:14:00.892Z,10.10
2019-02-15T13:15:05.816Z,10.00
2019-02-15T13:16:10.361Z,10.20
2019-02-15T13:17:24.208Z,10.18
2019-02-15T13:18:21.945Z,10.03
2019-02-15T13:19:26.739Z,10.30
2019-02-15T13:20:31.786Z,9.70
2019-02-15T13:21:36.432Z,10.20
2019-02-15T13:22:41.031Z,10.78
2019-02-15T13:23:45.634Z,10.08
2019-02-15T13:24:50.291Z,10.40
2019-02-15T13:25:54.998Z,10.25
2019-02-15T13:26:59.655Z,9.38
2019-02-15T13:28:04.308Z,10.00
2019-02-15T13:29:08.895Z,10.55
2019-02-15T13:30:13.922Z,9.50
2019-02-15T13:31:18.530Z,9.40
2019-02-15T13:32:23.240Z,9.05
2019-02-15T13:33:27.863Z,9.78
2019-02-15T13:34:32.577Z,9.50
2019-02-15T13:35:37.330Z,9.38
2019-02-15T13:36:42.015Z,8.95
2019-02-15T13:37:46.585Z,9.40
2019-02-15T13:38:57.120Z,9.33
2019-02-15T13:40:01.855Z,9.83
2019-02-15T13:41:08.267Z,9.55
2019-02-15T13:42:12.988Z,9.50
2019-02-15T13:43:17.850Z,9.85
2019-02-15T13:44:22.589Z,9.68
2019-02-15T13:45:29.389Z,9.48
2019-02-15T13:46:34.075Z,9.50
2019-02-15T13:47:38.683Z,8.88
2019-02-15T13:48:43.288Z,9.10
2019-02-15T13:49:48.245Z,9.20
2019-02-15T13:50:52.845Z,9.88
2019-02-15T13:51:59.613Z,8.30
2019-02-15T13:53:03.757Z,8.63
2019-02-15T13:54:08.446Z,8.88
2019-02-15T13:55:13.146Z,8.48
2019-02-15T13:56:18.101Z,9.20
2019-02-15T13:57:23.844Z,8.85
2019-02-15T13:58:28.401Z,8.88
2019-02-15T13:59:33.037Z,10.05
2019-02-15T14:00:37.635Z,8.98
2019-02-15T14:01:42.535Z,8.73
2019-02-15T14:02:47.142Z,9.00
2019-02-15T14:03:51.786Z,9.23
2019-02-15T14:04:56.565Z,8.60
2019-02-15T14:06:01.493Z,9.58
2019-02-15T14:07:17.288Z,9.00
2019-02-15T14:08:22.834Z,9.40
2019-02-15T14:09:27.405Z,8.25